CheckWX is a tool to help pilots better visualize weather data.  It is not intended as a substitute for an official pre-flight weather briefing.

08:02:05 UTC

KCCU METAR
Red Cliff Pass Airport
Copper Mountain, Colorado, USA
Current

27 mins ago

KCCU 280735Z AUTO 26006KT 10SM SCT031 SCT050 SCT065 06/02 A3055 RMK AO2
Observed
May-28 @ 07:35 UTC
Wind
  • 260° at 6 KTS
Visibility
Flight Rules
VFR
Cloud Levels
  • Scattered at 3,100' AGL
  • Scattered at 5,000' AGL
  • Scattered at 6,500' AGL
Temperature
C / 43°F
Dewpoint
C / 36°F
Humidity
76%
Altimeter
30.55" Hg
Pressure
1034.52 hPa
Previous

45 mins ago

KCCU 280717Z AUTO 27006KT 10SM SCT041 SCT050 07/02 A3055 RMK AO2
Observed
May-28 @ 07:17 UTC
Wind
  • 270° at 6 KTS
Visibility
Flight Rules
VFR
Cloud Levels
  • Scattered at 4,100' AGL
  • Scattered at 5,000' AGL
Temperature
C / 45°F
Dewpoint
C / 36°F
Humidity
71%
Altimeter
30.55" Hg
Pressure
1034.52 hPa
Previous

1 hour ago

KCCU 280655Z AUTO 25003KT 10SM SCT041 06/02 A3056 RMK AO2
Observed
May-28 @ 06:55 UTC
Wind
  • 250° at 3 KTS
Visibility
Flight Rules
VFR
Cloud Levels
  • Scattered at 4,100' AGL
Temperature
C / 43°F
Dewpoint
C / 36°F
Humidity
76%
Altimeter
30.56" Hg
Pressure
1034.92 hPa